createdAt,value
2018-02-05T00:00:07.861Z,-0.70
2018-02-05T00:02:36.914Z,-0.80
2018-02-05T00:05:05.176Z,-0.80
2018-02-05T00:07:33.474Z,-0.80
2018-02-05T00:10:02.567Z,-0.80
2018-02-05T00:12:30.829Z,-0.80
2018-02-05T00:14:59.235Z,-0.80
2018-02-05T00:17:28.275Z,-0.80
2018-02-05T00:19:56.554Z,-0.90
2018-02-05T00:22:24.839Z,-0.80
2018-02-05T00:24:53.094Z,-0.80
2018-02-05T00:27:21.484Z,-0.80
2018-02-05T00:29:49.779Z,-0.80
2018-02-05T00:32:18.058Z,-0.80
2018-02-05T00:34:46.326Z,-0.80
2018-02-05T00:37:14.610Z,-0.80
2018-02-05T00:39:42.858Z,-0.70
2018-02-05T00:42:11.133Z,-0.70
2018-02-05T00:44:39.410Z,-0.70
2018-02-05T00:47:07.785Z,-0.70
2018-02-05T00:49:36.066Z,-0.70
2018-02-05T00:52:04.339Z,-0.70
2018-02-05T00:54:32.595Z,-0.70
2018-02-05T00:57:00.916Z,-0.70
2018-02-05T00:59:29.171Z,-0.70
2018-02-05T01:01:57.460Z,-0.70
2018-02-05T01:04:25.770Z,-0.60
2018-02-05T01:06:54.098Z,-0.60
2018-02-05T01:09:22.384Z,-0.60
2018-02-05T01:11:50.911Z,-0.60
2018-02-05T01:14:19.113Z,-0.60
2018-02-05T01:16:47.561Z,-0.60
2018-02-05T01:19:16.611Z,-0.60
2018-02-05T01:21:44.888Z,-0.60
2018-02-05T01:24:13.172Z,-0.60
2018-02-05T01:26:41.458Z,-0.60
2018-02-05T01:29:09.745Z,-0.60
2018-02-05T01:31:38.754Z,-0.60
2018-02-05T01:34:07.045Z,-0.60
2018-02-05T01:36:35.533Z,-0.60
2018-02-05T01:39:04.534Z,-0.70
2018-02-05T01:41:32.800Z,-0.70
2018-02-05T01:44:01.134Z,-0.70
2018-02-05T01:46:29.385Z,-0.70
2018-02-05T01:48:57.704Z,-0.70
2018-02-05T01:51:26.014Z,-0.70
2018-02-05T01:53:54.373Z,-0.70
2018-02-05T01:56:23.406Z,-0.70
2018-02-05T01:58:51.726Z,-0.80
2018-02-05T02:01:20.095Z,-0.70
2018-02-05T02:03:48.386Z,-0.80
2018-02-05T02:06:16.826Z,-0.80
2018-02-05T02:08:45.096Z,-0.80
2018-02-05T02:11:13.393Z,-0.80
2018-02-05T02:13:42.525Z,-0.90
2018-02-05T02:16:10.767Z,-0.90
2018-02-05T02:18:39.828Z,-0.90
2018-02-05T02:21:08.158Z,-0.90
2018-02-05T02:23:36.436Z,-0.90
2018-02-05T02:26:04.737Z,-0.90
2018-02-05T02:28:33.097Z,-0.90
2018-02-05T02:31:01.466Z,-1.00
2018-02-05T02:33:29.727Z,-0.90
2018-02-05T02:35:57.991Z,-1.00
2018-02-05T02:38:27.114Z,-1.00
2018-02-05T02:40:55.418Z,-1.00
2018-02-05T02:43:23.698Z,-0.90
2018-02-05T02:45:52.098Z,-1.00
2018-02-05T02:48:21.151Z,-1.00
2018-02-05T02:50:49.406Z,-1.00
2018-02-05T02:53:17.685Z,-1.00
2018-02-05T02:55:45.933Z,-1.00
2018-02-05T02:58:14.246Z,-1.00
2018-02-05T03:00:42.542Z,-1.00
2018-02-05T03:03:10.805Z,-1.00
2018-02-05T03:05:39.079Z,-1.00
2018-02-05T03:08:07.367Z,-1.00
2018-02-05T03:10:35.639Z,-1.00
2018-02-05T03:13:03.884Z,-1.00
2018-02-05T03:15:32.194Z,-1.00
2018-02-05T03:18:00.463Z,-1.00
2018-02-05T03:20:28.975Z,-1.00
2018-02-05T03:22:58.041Z,-1.10
2018-02-05T03:25:26.298Z,-1.10
2018-02-05T03:27:54.573Z,-1.10
2018-02-05T03:30:22.856Z,-1.10
2018-02-05T03:32:51.156Z,-1.10
2018-02-05T03:35:20.941Z,-1.20
2018-02-05T03:37:49.355Z,-1.20
2018-02-05T03:40:18.578Z,-1.20
2018-02-05T03:42:46.864Z,-1.30
2018-02-05T03:45:15.135Z,-1.20
2018-02-05T03:47:43.411Z,-1.30
2018-02-05T03:50:11.902Z,-1.30
2018-02-05T03:52:40.179Z,-1.30
2018-02-05T03:55:08.470Z,-1.30
2018-02-05T03:57:36.758Z,-1.30
2018-02-05T04:00:05.452Z,-1.30
2018-02-05T04:02:33.695Z,-1.30
2018-02-05T04:05:01.988Z,-1.30
2018-02-05T04:07:30.262Z,-1.40
2018-02-05T04:09:58.514Z,-1.40
2018-02-05T04:12:26.880Z,-1.40
2018-02-05T04:14:55.145Z,-1.40
2018-02-05T04:17:23.425Z,-1.50
2018-02-05T04:19:51.694Z,-1.50
2018-02-05T04:22:19.974Z,-1.50
2018-02-05T04:24:48.222Z,-1.50
2018-02-05T04:27:16.534Z,-1.60
2018-02-05T04:29:44.791Z,-1.60
2018-02-05T04:32:13.067Z,-1.60
2018-02-05T04:34:42.399Z,-1.60
2018-02-05T04:37:10.694Z,-1.70
2018-02-05T04:39:39.776Z,-1.60
2018-02-05T04:42:08.059Z,-1.60
2018-02-05T04:44:36.355Z,-1.60
2018-02-05T04:47:05.387Z,-1.70
2018-02-05T04:49:33.664Z,-1.70
2018-02-05T04:52:01.920Z,-1.70
2018-02-05T04:54:30.199Z,-1.70
2018-02-05T04:56:58.555Z,-1.70
2018-02-05T04:59:27.616Z,-1.70
2018-02-05T05:01:55.874Z,-1.80
2018-02-05T05:04:24.145Z,-1.70
2018-02-05T05:06:52.601Z,-1.70
2018-02-05T05:09:21.097Z,-1.70
2018-02-05T05:11:49.342Z,-1.70
2018-02-05T05:14:17.620Z,-1.60
2018-02-05T05:16:46.641Z,-1.60
2018-02-05T05:19:14.884Z,-1.70
2018-02-05T05:21:43.165Z,-1.60
2018-02-05T05:24:11.435Z,-1.60
2018-02-05T05:26:39.711Z,-1.60
2018-02-05T05:29:07.995Z,-1.60
2018-02-05T05:31:36.256Z,-1.60
2018-02-05T05:34:04.540Z,-1.60
2018-02-05T05:36:33.569Z,-1.60
2018-02-05T05:39:01.880Z,-1.60
2018-02-05T05:41:30.150Z,-1.60
2018-02-05T05:43:59.223Z,-1.60
2018-02-05T05:46:27.595Z,-1.60
2018-02-05T05:48:55.868Z,-1.60
2018-02-05T05:51:24.146Z,-1.50
2018-02-05T05:53:52.453Z,-1.50
2018-02-05T05:56:20.856Z,-1.50
2018-02-05T05:58:49.129Z,-1.60
2018-02-05T06:01:17.379Z,-1.60
2018-02-05T06:03:46.426Z,-1.60
2018-02-05T06:06:14.790Z,-1.60
2018-02-05T06:08:43.086Z,-1.60
2018-02-05T06:11:11.326Z,-1.60
2018-02-05T06:13:41.492Z,-1.60
2018-02-05T06:16:09.747Z,-1.60
2018-02-05T06:18:38.075Z,-1.60
2018-02-05T06:21:06.326Z,-1.60
2018-02-05T06:23:34.615Z,-1.60
2018-02-05T06:26:02.914Z,-1.60
2018-02-05T06:28:31.182Z,-1.60
2018-02-05T06:31:00.367Z,-1.60
2018-02-05T06:33:29.412Z,-1.60
2018-02-05T06:35:57.670Z,-1.60
2018-02-05T06:38:25.964Z,-1.60
2018-02-05T06:40:54.244Z,-1.60
2018-02-05T06:43:22.515Z,-1.60
2018-02-05T06:45:51.630Z,-1.50
2018-02-05T06:48:19.887Z,-1.60
2018-02-05T06:51:00.099Z,-1.50
2018-02-05T06:53:40.962Z,-1.60
2018-02-05T06:56:10.989Z,-1.60
2018-02-05T06:58:39.248Z,-1.60
2018-02-05T07:01:08.295Z,-1.60
2018-02-05T07:03:36.574Z,-1.60
2018-02-05T07:06:04.861Z,-1.60
2018-02-05T07:08:33.129Z,-1.60
2018-02-05T07:11:01.406Z,-1.50
2018-02-05T07:13:29.718Z,-1.50
2018-02-05T07:15:59.004Z,-1.50
2018-02-05T07:18:27.651Z,-1.50
2018-02-05T07:20:55.908Z,-1.40
2018-02-05T07:23:24.195Z,-1.40
2018-02-05T07:25:52.498Z,-1.30
2018-02-05T07:28:20.771Z,-1.30
2018-02-05T07:30:49.068Z,-1.30
2018-02-05T07:33:17.318Z,-1.20
2018-02-05T07:35:46.414Z,-1.20
2018-02-05T07:38:14.693Z,-1.30
2018-02-05T07:40:42.963Z,-1.20
2018-02-05T07:43:11.275Z,-1.20
2018-02-05T07:45:39.734Z,-1.20
2018-02-05T07:48:08.030Z,-1.10
2018-02-05T07:50:37.092Z,-1.10
2018-02-05T07:53:05.511Z,-1.10
2018-02-05T07:55:33.816Z,-1.10
2018-02-05T07:58:04.094Z,-1.00
2018-02-05T08:00:33.162Z,-1.00
2018-02-05T08:03:01.434Z,-1.10
2018-02-05T08:05:29.703Z,-1.00
2018-02-05T08:07:57.990Z,-0.90
2018-02-05T08:10:26.259Z,-0.90
2018-02-05T08:12:54.589Z,-0.90
2018-02-05T08:15:22.842Z,-0.90
2018-02-05T08:17:51.178Z,-0.90
2018-02-05T08:20:19.482Z,-0.80
2018-02-05T08:22:47.734Z,-0.80
2018-02-05T08:25:16.821Z,-0.70
2018-02-05T08:27:45.115Z,-0.80
2018-02-05T08:30:14.192Z,-0.60
2018-02-05T08:32:42.439Z,-0.70
2018-02-05T08:35:10.776Z,-0.60
2018-02-05T08:37:39.840Z,-0.50
2018-02-05T08:40:08.178Z,-0.50
2018-02-05T08:42:37.694Z,-0.50
2018-02-05T08:45:06.044Z,-0.50
2018-02-05T08:47:34.300Z,-0.40
2018-02-05T08:50:03.322Z,-0.40
2018-02-05T08:52:31.721Z,-0.40
2018-02-05T08:55:00.031Z,-0.40
2018-02-05T08:57:28.318Z,-0.30
2018-02-05T08:59:57.370Z,-0.30
2018-02-05T09:02:25.624Z,-0.30
2018-02-05T09:04:53.897Z,-0.20
2018-02-05T09:07:22.176Z,-0.10
2018-02-05T09:09:50.541Z,0.00
2018-02-05T09:12:18.802Z,0.00
2018-02-05T09:14:47.068Z,0.10
2018-02-05T09:17:16.105Z,0.30
2018-02-05T09:19:44.367Z,0.30
2018-02-05T09:22:12.680Z,0.40
2018-02-05T09:24:40.939Z,0.50
2018-02-05T09:27:09.272Z,0.60
2018-02-05T09:29:37.555Z,0.60
2018-02-05T09:32:05.798Z,0.70
2018-02-05T09:34:34.880Z,0.80
2018-02-05T09:37:03.971Z,0.80
2018-02-05T09:39:32.457Z,0.80
2018-02-05T09:42:00.838Z,0.80
2018-02-05T09:44:29.878Z,1.00
2018-02-05T09:46:58.145Z,0.90
2018-02-05T09:49:26.436Z,1.00
2018-02-05T09:51:54.715Z,1.00
2018-02-05T09:54:22.990Z,1.10
2018-02-05T09:56:51.279Z,1.10
2018-02-05T09:59:19.521Z,1.20
2018-02-05T10:01:47.801Z,1.30
2018-02-05T10:04:16.074Z,1.30
2018-02-05T10:06:45.074Z,1.40
2018-02-05T10:09:13.478Z,1.40
2018-02-05T10:11:41.770Z,1.50
2018-02-05T10:14:10.014Z,1.60
2018-02-05T10:16:38.277Z,1.70
2018-02-05T10:19:06.518Z,1.70
2018-02-05T10:21:35.542Z,1.80
2018-02-05T10:24:03.910Z,1.80
2018-02-05T10:26:32.166Z,1.80
2018-02-05T10:29:00.492Z,2.00
2018-02-05T10:31:28.787Z,2.00
2018-02-05T10:33:57.026Z,2.00
2018-02-05T10:36:25.303Z,2.10
2018-02-05T10:38:53.559Z,2.10
2018-02-05T10:41:21.806Z,2.10
2018-02-05T10:43:50.791Z,2.20
2018-02-05T10:46:19.058Z,2.20
2018-02-05T10:48:47.430Z,2.30
2018-02-05T10:51:15.655Z,2.30
2018-02-05T10:53:44.085Z,2.40
2018-02-05T10:56:12.345Z,2.40
2018-02-05T10:58:40.700Z,2.40
2018-02-05T11:01:08.951Z,2.40
2018-02-05T11:03:37.277Z,2.50
2018-02-05T11:06:05.522Z,2.50
2018-02-05T11:08:33.784Z,2.60
2018-02-05T11:11:02.166Z,2.70
2018-02-05T11:13:30.404Z,2.70
2018-02-05T11:15:58.689Z,2.80
2018-02-05T11:18:27.713Z,2.80
2018-02-05T11:20:56.009Z,2.70
2018-02-05T11:23:24.272Z,2.70
2018-02-05T11:25:52.608Z,2.80
2018-02-05T11:28:21.628Z,3.00
2018-02-05T11:30:49.895Z,2.90
2018-02-05T11:33:18.135Z,3.10
2018-02-05T11:35:46.441Z,3.00
2018-02-05T11:38:14.734Z,3.10
2018-02-05T11:40:43.050Z,3.20
2018-02-05T11:43:11.277Z,3.10
2018-02-05T11:45:39.535Z,3.20
2018-02-05T11:48:07.774Z,3.10
2018-02-05T11:50:36.069Z,3.00
2018-02-05T11:53:05.086Z,3.10
2018-02-05T11:55:33.321Z,3.00
2018-02-05T11:58:01.591Z,3.10
2018-02-05T12:00:29.821Z,3.10
2018-02-05T12:02:58.081Z,3.10
2018-02-05T12:05:26.339Z,3.10
2018-02-05T12:07:54.627Z,3.20
2018-02-05T12:10:22.877Z,3.20
2018-02-05T12:12:52.010Z,3.20
2018-02-05T12:15:20.442Z,3.20
2018-02-05T12:17:48.681Z,3.30
2018-02-05T12:20:16.986Z,3.30
2018-02-05T12:22:45.323Z,3.30
2018-02-05T12:25:13.596Z,3.40
2018-02-05T12:27:41.883Z,3.40
2018-02-05T12:30:10.160Z,3.40
2018-02-05T12:32:38.402Z,3.50
2018-02-05T12:35:06.674Z,3.50
2018-02-05T12:37:35.014Z,3.50
2018-02-05T12:40:03.265Z,3.50
2018-02-05T12:42:31.523Z,3.50
2018-02-05T12:44:59.832Z,3.60
2018-02-05T12:47:28.087Z,3.50
2018-02-05T12:49:56.334Z,3.60
2018-02-05T12:52:24.585Z,3.60
2018-02-05T12:54:52.840Z,3.70
2018-02-05T12:57:21.882Z,3.60
2018-02-05T12:59:50.255Z,3.60
2018-02-05T13:02:18.508Z,3.70
2018-02-05T13:04:46.786Z,3.70
2018-02-05T13:07:15.185Z,3.80
2018-02-05T13:09:43.441Z,3.90
2018-02-05T13:12:11.730Z,3.90
2018-02-05T13:14:40.027Z,3.90
2018-02-05T13:17:08.300Z,4.00
2018-02-05T13:19:36.571Z,4.00
2018-02-05T13:22:04.883Z,4.00
2018-02-05T13:24:34.141Z,4.00
2018-02-05T13:27:02.561Z,4.00
2018-02-05T13:29:30.827Z,4.00
2018-02-05T13:31:59.073Z,4.00
2018-02-05T13:34:27.451Z,4.00
2018-02-05T13:36:55.730Z,4.10
2018-02-05T13:39:24.093Z,4.10
2018-02-05T13:41:52.355Z,4.10
2018-02-05T13:44:20.605Z,4.10
2018-02-05T13:46:49.637Z,4.20
2018-02-05T13:49:17.918Z,4.20
2018-02-05T13:51:46.191Z,4.30
2018-02-05T13:54:14.496Z,4.30
2018-02-05T13:56:43.521Z,4.30
2018-02-05T13:59:12.551Z,4.40
2018-02-05T14:01:40.819Z,4.30
2018-02-05T14:04:09.129Z,4.40
2018-02-05T14:06:37.390Z,4.40
2018-02-05T14:09:05.635Z,4.40
2018-02-05T14:11:33.897Z,4.20
2018-02-05T14:14:02.171Z,4.20
2018-02-05T14:16:30.430Z,4.20
2018-02-05T14:18:58.789Z,4.20
2018-02-05T14:21:27.094Z,4.30
2018-02-05T14:23:55.415Z,4.30
2018-02-05T14:26:23.712Z,4.40
2018-02-05T14:28:51.954Z,4.30
2018-02-05T14:31:20.237Z,4.20
2018-02-05T14:33:48.482Z,4.20
2018-02-05T14:36:16.749Z,4.30
2018-02-05T14:38:45.769Z,4.20
2018-02-05T14:41:14.003Z,4.20
2018-02-05T14:43:43.034Z,4.20
2018-02-05T14:46:11.288Z,4.20
2018-02-05T14:48:40.302Z,4.20
2018-02-05T14:51:08.547Z,4.20
2018-02-05T14:53:36.850Z,4.20
2018-02-05T14:56:05.214Z,4.10
2018-02-05T14:58:33.507Z,4.10
2018-02-05T15:01:01.765Z,4.10
2018-02-05T15:03:30.097Z,4.10
2018-02-05T15:05:58.333Z,4.00
2018-02-05T15:08:26.599Z,4.00
2018-02-05T15:10:54.866Z,3.90
2018-02-05T15:13:23.345Z,3.90
2018-02-05T15:15:51.602Z,3.90
2018-02-05T15:18:19.863Z,3.80
2018-02-05T15:20:48.159Z,3.80
2018-02-05T15:23:16.415Z,3.70
2018-02-05T15:25:45.465Z,3.60
2018-02-05T15:28:13.724Z,3.50
2018-02-05T15:30:42.139Z,3.50
2018-02-05T15:33:11.383Z,3.30
2018-02-05T15:35:39.806Z,3.30
2018-02-05T15:38:09.613Z,3.10
2018-02-05T15:40:37.856Z,3.10
2018-02-05T15:43:06.108Z,3.10
2018-02-05T15:45:34.374Z,3.10
2018-02-05T15:48:02.787Z,3.00
2018-02-05T15:50:31.058Z,2.90
2018-02-05T15:52:59.356Z,2.90
2018-02-05T15:55:27.615Z,2.90
2018-02-05T15:57:56.002Z,2.80
2018-02-05T16:00:24.246Z,2.70
2018-02-05T16:02:52.535Z,2.70
2018-02-05T16:05:20.828Z,2.70
2018-02-05T16:07:49.182Z,2.70
2018-02-05T16:10:17.418Z,2.60
2018-02-05T16:12:46.456Z,2.50
2018-02-05T16:15:14.806Z,2.50
2018-02-05T16:17:43.107Z,2.50
2018-02-05T16:20:11.459Z,2.40
2018-02-05T16:22:39.754Z,2.40
2018-02-05T16:25:08.038Z,2.30
2018-02-05T16:27:36.294Z,2.20
2018-02-05T16:30:04.559Z,2.20
2018-02-05T16:32:33.753Z,2.10
2018-02-05T16:35:02.035Z,2.10
2018-02-05T16:37:30.275Z,2.00
2018-02-05T16:39:59.334Z,1.90
2018-02-05T16:42:27.665Z,1.80
2018-02-05T16:44:56.759Z,1.80
2018-02-05T16:47:25.973Z,1.80
2018-02-05T16:49:54.293Z,1.70
2018-02-05T16:52:22.606Z,1.70
2018-02-05T16:54:51.646Z,1.60
2018-02-05T16:57:19.961Z,1.50
2018-02-05T16:59:48.983Z,1.50
2018-02-05T17:02:17.378Z,1.40
2018-02-05T17:04:45.780Z,1.40
2018-02-05T17:07:14.190Z,1.40
2018-02-05T17:09:43.237Z,1.30
2018-02-05T17:12:11.560Z,1.30
2018-02-05T17:14:40.790Z,1.20
2018-02-05T17:17:09.051Z,1.20
2018-02-05T17:19:37.309Z,1.20
2018-02-05T17:22:05.596Z,1.10
2018-02-05T17:24:33.907Z,1.10
2018-02-05T17:27:02.210Z,1.10
2018-02-05T17:29:30.543Z,1.00
2018-02-05T17:31:58.867Z,1.00
2018-02-05T17:34:27.126Z,1.00
2018-02-05T17:36:55.494Z,0.90
2018-02-05T17:39:23.782Z,0.90
2018-02-05T17:41:52.038Z,0.90
2018-02-05T17:44:20.333Z,0.90
2018-02-05T17:46:48.581Z,0.80
2018-02-05T17:49:17.343Z,0.80
2018-02-05T17:51:46.370Z,0.70
2018-02-05T17:54:14.702Z,0.70
2018-02-05T17:56:43.723Z,0.60
2018-02-05T17:59:12.028Z,0.60
2018-02-05T18:01:40.289Z,0.60
2018-02-05T18:04:08.564Z,0.60
2018-02-05T18:06:36.848Z,0.60
2018-02-05T18:09:05.158Z,0.60
2018-02-05T18:11:34.370Z,0.50
2018-02-05T18:14:02.691Z,0.40
2018-02-05T18:16:31.001Z,0.50
2018-02-05T18:19:00.219Z,0.40
2018-02-05T18:21:28.499Z,0.40
2018-02-05T18:23:56.942Z,0.40
2018-02-05T18:26:27.662Z,0.30
2018-02-05T18:28:55.932Z,0.20
2018-02-05T18:31:24.198Z,0.30
2018-02-05T18:33:52.727Z,0.20
2018-02-05T18:36:21.778Z,0.20
2018-02-05T18:38:50.044Z,0.10
2018-02-05T18:41:18.408Z,0.10
2018-02-05T18:43:46.711Z,0.10
2018-02-05T18:46:15.012Z,0.10
2018-02-05T18:48:43.276Z,0.10
2018-02-05T18:51:11.735Z,0.00
2018-02-05T18:53:41.425Z,0.00
2018-02-05T18:56:09.706Z,0.00
2018-02-05T18:58:38.006Z,0.00
2018-02-05T19:01:06.290Z,-0.10
2018-02-05T19:03:35.363Z,-0.10
2018-02-05T19:06:03.654Z,-0.20
2018-02-05T19:08:31.918Z,-0.10
2018-02-05T19:11:00.204Z,-0.10
2018-02-05T19:13:29.264Z,-0.10
2018-02-05T19:15:57.561Z,-0.20
2018-02-05T19:18:25.846Z,-0.10
2018-02-05T19:20:54.135Z,-0.20
2018-02-05T19:23:22.435Z,-0.20
2018-02-05T19:25:50.713Z,-0.20
2018-02-05T19:28:19.004Z,-0.20
2018-02-05T19:30:47.428Z,-0.30
2018-02-05T19:33:15.727Z,-0.30
2018-02-05T19:35:43.998Z,-0.30
2018-02-05T19:38:12.318Z,-0.30
2018-02-05T19:40:40.667Z,-0.30
2018-02-05T19:43:08.932Z,-0.30
2018-02-05T19:45:37.223Z,-0.30
2018-02-05T19:48:05.499Z,-0.40
2018-02-05T19:50:33.798Z,-0.40
2018-02-05T19:53:02.078Z,-0.40
2018-02-05T19:55:30.406Z,-0.40
2018-02-05T19:57:58.903Z,-0.40
2018-02-05T20:00:27.211Z,-0.40
2018-02-05T20:02:55.502Z,-0.40
2018-02-05T20:05:23.795Z,-0.50
2018-02-05T20:07:52.097Z,-0.50
2018-02-05T20:10:20.621Z,-0.50
2018-02-05T20:12:48.884Z,-0.60
2018-02-05T20:15:17.182Z,-0.60
2018-02-05T20:17:45.446Z,-0.60
2018-02-05T20:20:13.819Z,-0.60
2018-02-05T20:22:42.100Z,-0.70
2018-02-05T20:25:10.394Z,-0.70
2018-02-05T20:27:38.682Z,-0.80
2018-02-05T20:30:07.755Z,-0.80
2018-02-05T20:32:36.073Z,-0.80
2018-02-05T20:35:04.386Z,-0.80
2018-02-05T20:37:32.699Z,-0.80
2018-02-05T20:40:00.948Z,-0.90
2018-02-05T20:42:29.258Z,-0.90
2018-02-05T20:44:57.682Z,-0.90
2018-02-05T20:47:26.120Z,-0.90
2018-02-05T20:49:55.169Z,-1.00
2018-02-05T20:52:23.449Z,-1.00
2018-02-05T20:54:51.721Z,-1.00
2018-02-05T20:57:19.970Z,-1.00
2018-02-05T20:59:48.221Z,-1.00
2018-02-05T21:02:16.526Z,-1.00
2018-02-05T21:04:44.764Z,-1.00
2018-02-05T21:07:13.035Z,-1.10
2018-02-05T21:09:41.375Z,-1.10
2018-02-05T21:12:11.198Z,-1.20
2018-02-05T21:14:40.255Z,-1.10
2018-02-05T21:17:08.534Z,-1.20
2018-02-05T21:19:36.791Z,-1.20
2018-02-05T21:22:05.074Z,-1.20
2018-02-05T21:24:33.368Z,-1.20
2018-02-05T21:27:01.607Z,-1.20
2018-02-05T21:29:29.898Z,-1.20
2018-02-05T21:31:58.190Z,-1.20
2018-02-05T21:34:26.505Z,-1.20
2018-02-05T21:36:55.624Z,-1.30
2018-02-05T21:39:23.938Z,-1.30
2018-02-05T21:41:52.197Z,-1.30
2018-02-05T21:44:22.286Z,-1.30
2018-02-05T21:46:50.582Z,-1.40
2018-02-05T21:49:18.847Z,-1.40
2018-02-05T21:51:47.135Z,-1.40
2018-02-05T21:54:15.423Z,-1.40
2018-02-05T21:56:43.691Z,-1.40
2018-02-05T21:59:11.985Z,-1.40
2018-02-05T22:01:40.287Z,-1.40
2018-02-05T22:04:08.554Z,-1.50
2018-02-05T22:06:36.839Z,-1.50
2018-02-05T22:09:05.866Z,-1.50
2018-02-05T22:11:34.167Z,-1.60
2018-02-05T22:14:02.436Z,-1.60
2018-02-05T22:16:30.705Z,-1.60
2018-02-05T22:18:58.990Z,-1.60
2018-02-05T22:21:27.294Z,-1.60
2018-02-05T22:23:55.667Z,-1.60
2018-02-05T22:26:25.083Z,-1.70
2018-02-05T22:28:53.366Z,-1.70
2018-02-05T22:31:22.407Z,-1.70
2018-02-05T22:33:50.695Z,-1.80
2018-02-05T22:36:19.097Z,-1.70
2018-02-05T22:38:47.429Z,-1.80
2018-02-05T22:41:15.675Z,-1.80
2018-02-05T22:43:43.956Z,-1.80
2018-02-05T22:46:12.253Z,-1.80
2018-02-05T22:48:40.531Z,-1.80
2018-02-05T22:51:08.790Z,-1.80
2018-02-05T22:53:37.113Z,-1.80
2018-02-05T22:56:05.374Z,-1.90
2018-02-05T22:58:33.637Z,-1.90
2018-02-05T23:01:01.935Z,-1.90
2018-02-05T23:03:30.222Z,-1.90
2018-02-05T23:05:58.503Z,-1.90
2018-02-05T23:08:26.750Z,-2.00
2018-02-05T23:10:55.081Z,-2.00
2018-02-05T23:13:23.339Z,-2.00
2018-02-05T23:15:52.462Z,-2.00
2018-02-05T23:18:20.736Z,-2.10
2018-02-05T23:20:49.128Z,-2.00
2018-02-05T23:23:17.399Z,-2.00
2018-02-05T23:25:45.669Z,-2.10
2018-02-05T23:28:13.909Z,-2.10
2018-02-05T23:30:42.944Z,-2.10
2018-02-05T23:33:11.265Z,-2.10
2018-02-05T23:35:40.303Z,-2.10
2018-02-05T23:38:08.544Z,-2.10
2018-02-05T23:40:37.598Z,-2.10
2018-02-05T23:43:05.840Z,-2.20
2018-02-05T23:45:34.191Z,-2.10
2018-02-05T23:48:02.434Z,-2.10
2018-02-05T23:50:30.708Z,-2.10
2018-02-05T23:52:59.024Z,-2.10
2018-02-05T23:55:28.044Z,-2.20
2018-02-05T23:57:56.327Z,-2.30
